Time;durP1;ratioP1;P1;durP2;ratioP2;P2;SDS_P1;SDS_P2;PMS_P1;PMS_P2;Temp;Humidity;BMP_temperature;BMP_pressure;BME280_temperature;BME280_humidity;BME280_pressure;Samples;Min_cycle;Max_cycle;Signal;HPM_P1;HPM_P2
2023/06/27 02:57:46;;;;;;;35.45;11.90;;;;;;;;;;2541994;23;20030;-96
2023/06/27 03:01:00;;;;;;;12.13;6.13;;;;;;;;;;2518928;23;20044;-91
2023/06/27 03:02:24;;;;;;;16.85;6.38;;;;;;;;;;2528078;23;20006;-92
2023/06/27 03:03:47;;;;;;;13.75;5.97;;;;;;;;;;2530150;23;20018;-92
2023/06/27 03:05:08;;;;;;;16.58;5.75;;;;;;;;;;2541560;23;20019;-91
2023/06/27 03:06:35;;;;;;;21.05;7.30;;;;;;;;;;2534612;23;20009;-92
2023/06/27 03:08:02;;;;;;;13.27;5.72;;;;;;;;;;2531784;23;20010;-92
2023/06/27 03:09:36;;;;;;;18.13;5.95;;;;;;;;;;2531106;23;20082;-92
2023/06/27 03:10:57;;;;;;;18.60;6.45;;;;;;;;;;2515285;23;20018;-92
2023/06/27 03:12:44;;;;;;;18.60;6.00;;;;;;;;;;2530120;23;20006;-92
2023/06/27 03:14:05;;;;;;;18.80;6.63;;;;;;;;;;2535385;23;20013;-92
2023/06/27 03:15:41;;;;;;;17.50;6.10;;;;;;;;;;2530859;23;20006;-93
2023/06/27 03:17:03;;;;;;;14.20;5.75;;;;;;;;;;2534277;23;20065;-92
2023/06/27 03:18:26;;;;;;;20.40;6.43;;;;;;;;;;2527887;23;20010;-92
2023/06/27 03:19:47;;;;;;;16.55;6.47;;;;;;;;;;2525664;23;20018;-91
2023/06/27 03:21:15;;;;;;;17.65;5.70;;;;;;;;;;2527644;23;20018;-91
2023/06/27 03:22:48;;;;;;;13.32;6.00;;;;;;;;;;2521431;23;20025;-92
2023/06/27 03:24:09;;;;;;;14.68;6.35;;;;;;;;;;2509556;23;20015;-92
2023/06/27 03:25:37;;;;;;;15.63;5.82;;;;;;;;;;2517840;23;20483;-91
2023/06/27 03:26:58;;;;;;;17.45;7.40;;;;;;;;;;2522822;23;20014;-91
2023/06/27 03:28:48;;;;;;;19.17;6.82;;;;;;;;;;2516192;23;20018;-92
2023/06/27 03:30:12;;;;;;;14.80;7.18;;;;;;;;;;2521923;23;20018;-92
2023/06/27 03:31:57;;;;;;;16.38;6.07;;;;;;;;;;2521309;23;20026;-92
2023/06/27 03:33:20;;;;;;;17.10;6.32;;;;;;;;;;2523874;23;20005;-91
2023/06/27 03:34:44;;;;;;;17.48;6.30;;;;;;;;;;2509720;23;20011;-91
2023/06/27 03:36:10;;;;;;;21.35;7.25;;;;;;;;;;2518328;23;20007;-91
2023/06/27 03:37:33;;;;;;;15.23;6.30;;;;;;;;;;2521355;23;20010;-91
2023/06/27 03:39:06;;;;;;;18.40;7.20;;;;;;;;;;2515782;23;20027;-92
2023/06/27 03:40:35;;;;;;;32.75;11.95;;;;;;;;;;2505459;23;20022;-90
2023/06/27 03:41:59;;;;;;;16.58;6.38;;;;;;;;;;2510353;23;20015;-92
2023/06/27 03:43:26;;;;;;;12.68;6.22;;;;;;;;;;2521145;23;20041;-91
2023/06/27 03:44:53;;;;;;;18.73;7.30;;;;;;;;;;2519203;23;20021;-91
2023/06/27 03:46:17;;;;;;;10.57;6.00;;;;;;;;;;2515119;23;20022;-91
2023/06/27 03:47:52;;;;;;;14.57;5.68;;;;;;;;;;2528214;23;20442;-92
2023/06/27 03:49:13;;;;;;;17.98;6.68;;;;;;;;;;2534555;23;20328;-92
2023/06/27 03:51:02;;;;;;;;;;;;;;;;;;;;;
2023/06/27 03:52:26;;;;;;;16.17;6.65;;;;;;;;;;2543810;23;20009;-91
2023/06/27 03:53:53;;;;;;;18.92;6.38;;;;;;;;;;2537844;23;20018;-92
2023/06/27 03:55:17;;;;;;;18.45;5.90;;;;;;;;;;2530173;23;20009;-92
2023/06/27 03:58:27;;;;;;;19.02;6.63;;;;;;;;;;2541124;23;20013;-91
2023/06/27 03:59:48;;;;;;;18.83;6.35;;;;;;;;;;2519901;23;20021;-92
2023/06/27 04:01:18;;;;;;;16.45;5.88;;;;;;;;;;2501589;23;20014;-92
2023/06/27 04:02:47;;;;;;;16.75;6.15;;;;;;;;;;2521190;23;20011;-90
2023/06/27 04:04:18;;;;;;;17.17;6.15;;;;;;;;;;2522470;23;20002;-91
2023/06/27 04:05:51;;;;;;;25.58;7.18;;;;;;;;;;2520363;23;20038;-91
2023/06/27 04:07:40;;;;;;;15.90;6.30;;;;;;;;;;2521673;23;20006;-92
2023/06/27 04:09:07;;;;;;;17.08;7.07;;;;;;;;;;2535635;23;20021;-92
2023/06/27 04:10:31;;;;;;;22.90;7.30;;;;;;;;;;2521665;23;20017;-92
2023/06/27 04:11:59;;;;;;;24.67;7.18;;;;;;;;;;2519544;23;20034;-92
2023/06/27 04:13:31;;;;;;;18.42;6.35;;;;;;;;;;2518964;23;20053;-92
2023/06/27 04:14:52;;;;;;;;;;;;;;;;;;2522901;23;20018;-91
2023/06/27 04:16:14;;;;;;;19.85;6.65;;;;;;;;;;2520454;23;19901;-92
2023/06/27 04:17:41;;;;;;;23.23;6.60;;;;;;;;;;2519225;23;20014;-91
2023/06/27 04:19:05;;;;;;;16.05;6.00;;;;;;;;;;2517621;23;20459;-91
2023/06/27 04:20:28;;;;;;;16.55;6.78;;;;;;;;;;2514886;23;20030;-92
2023/06/27 04:21:57;;;;;;;20.70;6.70;;;;;;;;;;2503427;23;20065;-92
2023/06/27 04:23:25;;;;;;;17.95;6.45;;;;;;;;;;2518745;23;20013;-92
2023/06/27 04:24:50;;;;;;;19.52;7.40;;;;;;;;;;2520660;23;19997;-91
2023/06/27 04:26:15;;;;;;;17.58;6.45;;;;;;;;;;2515711;23;20010;-92
2023/06/27 04:27:42;;;;;;;19.52;7.28;;;;;;;;;;2532287;23;20032;-92
2023/06/27 04:29:05;;;;;;;18.77;6.80;;;;;;;;;;2521918;23;20367;-92
2023/06/27 04:30:45;;;;;;;18.85;6.90;;;;;;;;;;2519278;23;20018;-91
2023/06/27 04:32:14;;;;;;;16.73;7.30;;;;;;;;;;2519325;23;20022;-92
2023/06/27 04:33:54;;;;;;;;;;;;;;;;;;;;;
2023/06/27 04:35:19;;;;;;;21.77;6.45;;;;;;;;;;2535770;23;20006;-92
2023/06/27 04:36:46;;;;;;;17.60;7.10;;;;;;;;;;2522040;23;20007;-92
2023/06/27 04:38:18;;;;;;;19.50;6.78;;;;;;;;;;2522237;23;20368;-92
2023/06/27 04:41:37;;;;;;;38.35;13.60;;;;;;;;;;2518305;23;19901;-91
2023/06/27 04:43:04;;;;;;;17.05;7.38;;;;;;;;;;2525741;23;20011;-93
2023/06/27 04:44:27;;;;;;;15.70;6.53;;;;;;;;;;2516935;23;20006;-91
2023/06/27 04:45:54;;;;;;;14.73;6.75;;;;;;;;;;2522191;23;19998;-92
2023/06/27 04:47:15;;;;;;;16.23;7.10;;;;;;;;;;2518594;23;20007;-92
2023/06/27 04:48:36;;;;;;;28.08;6.97;;;;;;;;;;2518859;23;20014;-93
2023/06/27 04:50:05;;;;;;;15.57;6.97;;;;;;;;;;2530306;23;20013;-92
2023/06/27 04:51:32;;;;;;;36.92;14.15;;;;;;;;;;2504885;23;20014;-92
2023/06/27 04:52:59;;;;;;;21.33;8.50;;;;;;;;;;2520132;23;20006;-91
2023/06/27 04:54:23;;;;;;;22.48;7.47;;;;;;;;;;2518467;23;20011;-92
2023/06/27 04:55:49;;;;;;;14.70;7.03;;;;;;;;;;2519893;23;20018;-92
2023/06/27 04:57:18;;;;;;;17.33;6.60;;;;;;;;;;2519007;23;20014;-92
2023/06/27 04:58:43;;;;;;;18.75;7.32;;;;;;;;;;2521045;23;20026;-92
2023/06/27 05:00:09;;;;;;;18.73;7.25;;;;;;;;;;2528680;23;20010;-92
2023/06/27 05:01:36;;;;;;;41.17;13.85;;;;;;;;;;2506033;23;20018;-92
2023/06/27 05:02:57;;;;;;;19.85;7.70;;;;;;;;;;2518992;23;20007;-92
2023/06/27 05:04:23;;;;;;;18.50;6.65;;;;;;;;;;2520466;23;20010;-93
2023/06/27 05:05:51;;;;;;;19.02;7.65;;;;;;;;;;2521701;23;20471;-93
2023/06/27 05:07:38;;;;;;;15.40;6.32;;;;;;;;;;2521196;23;20101;-94
2023/06/27 05:11:09;;;;;;;18.60;7.25;;;;;;;;;;2533299;23;20491;-94
2023/06/27 05:12:33;;;;;;;20.98;7.63;;;;;;;;;;2522463;23;20018;-94
2023/06/27 05:14:27;;;;;;;20.13;7.22;;;;;;;;;;2518366;23;20482;-94
2023/06/27 05:16:13;;;;;;;16.33;7.22;;;;;;;;;;2520470;23;20014;-94
2023/06/27 05:17:42;;;;;;;18.15;7.57;;;;;;;;;;2522867;23;20070;-95
2023/06/27 05:19:32;;;;;;;16.08;7.20;;;;;;;;;;2521056;23;20367;-93
2023/06/27 05:21:16;;;;;;;19.60;7.82;;;;;;;;;;2522039;23;20021;-94
2023/06/27 05:23:07;;;;;;;;;;;;;;;;;;;;;
2023/06/27 05:25:10;;;;;;;12.98;6.88;;;;;;;;;;2509562;23;20373;-93
2023/06/27 05:27:19;;;;;;;21.23;8.75;;;;;;;;;;2459404;24;20020;-94
2023/06/27 05:31:05;;;;;;;;;;;;;;;;;;;;;
2023/06/27 05:33:02;;;;;;;;;;;;;;;;;;;;;
2023/06/27 05:34:50;;;;;;;21.73;8.55;;;;;;;;;;2468313;24;20146;-92
2023/06/27 05:36:49;;;;;;;20.90;7.43;;;;;;;;;;2482203;23;20015;-93
2023/06/27 05:38:23;;;;;;;19.45;8.10;;;;;;;;;;2474396;23;20015;-93
2023/06/27 05:39:52;;;;;;;18.13;7.65;;;;;;;;;;2476151;23;20015;-93
2023/06/27 05:41:50;;;;;;;21.20;8.32;;;;;;;;;;2473437;23;20008;-92
2023/06/27 05:45:26;;;;;;;20.15;8.00;;;;;;;;;;2470940;24;20019;-93
2023/06/27 05:47:04;;;;;;;;;;;;;;;;;;2466151;23;20008;-93
2023/06/27 05:48:41;;;;;;;;;;;;;;;;;;;;;
2023/06/27 05:50:28;;;;;;;;;;;;;;;;;;;;;
2023/06/27 05:51:54;;;;;;;17.70;7.50;;;;;;;;;;2500519;23;20018;-93
2023/06/27 05:53:16;;;;;;;23.65;9.05;;;;;;;;;;2481370;23;20030;-93
2023/06/27 05:54:42;;;;;;;23.20;8.18;;;;;;;;;;2493150;23;20353;-93
2023/06/27 05:56:46;;;;;;;;;;;;;;;;;;;;;
2023/06/27 05:58:07;;;;;;;22.95;8.30;;;;;;;;;;2499850;23;20018;-93
2023/06/27 05:59:28;;;;;;;19.90;7.40;;;;;;;;;;2499242;23;20327;-92
2023/06/27 06:01:00;;;;;;;20.02;7.50;;;;;;;;;;2497428;23;20011;-92
2023/06/27 06:02:21;;;;;;;37.30;12.00;;;;;;;;;;2485830;23;20335;-93
2023/06/27 06:03:48;;;;;;;17.52;7.57;;;;;;;;;;2508712;23;20022;-93
2023/06/27 06:05:15;;;;;;;17.48;8.00;;;;;;;;;;2499867;23;20031;-92
2023/06/27 06:06:39;;;;;;;16.30;6.85;;;;;;;;;;2494736;23;20461;-93
2023/06/27 06:08:03;;;;;;;19.75;8.02;;;;;;;;;;2499312;23;20022;-93
2023/06/27 06:09:24;;;;;;;16.60;7.68;;;;;;;;;;2517351;23;20042;-93
2023/06/27 06:10:54;;;;;;;17.83;8.57;;;;;;;;;;2519233;23;20019;-92
2023/06/27 06:12:18;;;;;;;14.60;7.20;;;;;;;;;;2517867;23;20444;-93
2023/06/27 06:13:57;;;;;;;17.58;7.57;;;;;;;;;;2519860;23;20045;-93
2023/06/27 06:15:24;;;;;;;16.58;8.13;;;;;;;;;;2523176;23;20014;-93
2023/06/27 06:16:57;;;;;;;16.50;7.38;;;;;;;;;;2518925;23;20026;-93
2023/06/27 06:18:33;;;;;;;19.88;7.63;;;;;;;;;;2523109;23;20001;-95
2023/06/27 06:20:11;;;;;;;;;;;;;;;;;;;;;
2023/06/27 06:21:37;;;;;;;16.40;7.95;;;;;;;;;;2532334;23;20010;-94
2023/06/27 06:23:51;;;;;;;23.27;9.15;;;;;;;;;;2502751;23;20025;-96
2023/06/27 06:25:05;;;;;;;19.38;9.82;;;;;;;;;;2518008;23;20360;-95
2023/06/27 06:26:35;;;;;;;17.05;6.88;;;;;;;;;;2514497;23;20010;-96
2023/06/27 06:27:59;;;;;;;19.98;7.50;;;;;;;;;;2510661;23;20007;-96
2023/06/27 06:29:34;;;;;;;14.82;7.60;;;;;;;;;;2521522;23;20444;-96
2023/06/27 06:35:07;;;;;;;22.67;7.85;;;;;;;;;;2455116;24;20028;-95
2023/06/27 06:38:32;;;;;;;;;;;;;;;;;;2457859;24;20077;-96
2023/06/27 06:44:17;;;;;;;13.63;7.38;;;;;;;;;;2443550;23;20032;-95
2023/06/27 06:48:17;;;;;;;22.55;7.18;;;;;;;;;;2500745;23;20338;-96
2023/06/27 06:55:23;;;;;;;39.25;14.63;;;;;;;;;;2530915;23;20021;-92
2023/06/27 06:57:23;;;;;;;20.25;9.40;;;;;;;;;;2522631;23;20022;-93
2023/06/27 06:58:43;;;;;;;19.15;8.88;;;;;;;;;;2531434;23;20348;-92
2023/06/27 07:00:07;;;;;;;17.87;8.30;;;;;;;;;;2520748;23;20018;-92
2023/06/27 07:02:27;;;;;;;18.38;8.57;;;;;;;;;;2535718;23;20021;-94
2023/06/27 07:04:09;;;;;;;21.27;8.32;;;;;;;;;;2471612;23;20508;-94
2023/06/27 07:05:36;;;;;;;20.15;9.05;;;;;;;;;;2487257;23;20007;-93
2023/06/27 07:09:13;;;;;;;;;;;;;;;;;;;;;
2023/06/27 07:12:28;;;;;;;20.52;8.63;;;;;;;;;;2487527;23;19898;-92
2023/06/27 07:14:22;;;;;;;22.67;8.68;;;;;;;;;;2485025;23;20583;-92
2023/06/27 07:16:10;;;;;;;22.25;7.95;;;;;;;;;;2486488;23;20011;-92
2023/06/27 07:17:34;;;;;;;13.05;7.10;;;;;;;;;;2477713;23;20057;-93
2023/06/27 07:18:58;;;;;;;20.88;8.38;;;;;;;;;;2474635;23;20502;-92
2023/06/27 07:20:31;;;;;;;26.80;8.77;;;;;;;;;;2482967;23;20105;-92
2023/06/27 07:23:42;;;;;;;35.67;13.18;;;;;;;;;;2471495;23;20015;-93
2023/06/27 07:25:24;;;;;;;12.27;6.90;;;;;;;;;;2485754;23;20019;-92
2023/06/27 07:27:03;;;;;;;14.73;7.22;;;;;;;;;;2475233;24;20027;-92
2023/06/27 07:28:25;;;;;;;14.23;6.88;;;;;;;;;;2484284;23;20020;-92
2023/06/27 07:32:05;;;;;;;16.67;6.97;;;;;;;;;;2518911;23;20006;-91
2023/06/27 07:33:44;;;;;;;14.45;6.70;;;;;;;;;;2510082;23;20037;-92
2023/06/27 07:35:13;;;;;;;17.05;7.45;;;;;;;;;;2506304;23;20038;-93
2023/06/27 07:36:58;;;;;;;21.33;8.57;;;;;;;;;;2508022;23;19994;-92
2023/06/27 07:39:01;;;;;;;;;;;;;;;;;;;;;
2023/06/27 07:41:02;;;;;;;;;;;;;;;;;;;;;
2023/06/27 07:42:49;;;;;;;11.97;6.03;;;;;;;;;;2534104;23;20019;-93
2023/06/27 07:46:31;;;;;;;15.50;5.88;;;;;;;;;;2499810;23;20023;-90
2023/06/27 07:47:55;;;;;;;13.45;6.75;;;;;;;;;;2521005;23;20011;-89
2023/06/27 07:49:25;;;;;;;10.48;5.55;;;;;;;;;;2520515;23;20225;-90
2023/06/27 07:50:54;;;;;;;14.30;6.13;;;;;;;;;;2519510;23;20018;-90
2023/06/27 07:52:24;;;;;;;15.00;5.55;;;;;;;;;;2520795;23;20097;-90
2023/06/27 07:55:53;;;;;;;13.13;5.95;;;;;;;;;;2533406;23;20340;-90
2023/06/27 08:01:30;;;;;;;17.42;6.72;;;;;;;;;;2532212;23;20014;-90
2023/06/27 08:05:49;;;;;;;25.92;8.27;;;;;;;;;;2438278;24;20028;-89
2023/06/27 08:11:46;;;;;;;;;;;;;;;;;;;;;
2023/06/27 08:17:16;;;;;;;18.63;7.32;;;;;;;;;;2463401;24;20320;-90
2023/06/27 08:19:13;;;;;;;16.27;6.47;;;;;;;;;;2461708;24;20015;-90
2023/06/27 08:20:54;;;;;;;16.50;7.45;;;;;;;;;;2461317;23;20017;-90
2023/06/27 08:22:20;;;;;;;12.02;5.45;;;;;;;;;;2487145;23;20023;-92
2023/06/27 08:23:53;;;;;;;11.27;5.07;;;;;;;;;;2494164;23;20018;-90
2023/06/27 08:25:22;;;;;;;11.75;6.82;;;;;;;;;;2478621;23;20028;-91
2023/06/27 08:29:01;;;;;;;18.10;7.43;;;;;;;;;;2515504;23;20241;-90
2023/06/27 08:30:39;;;;;;;;;;;;;;;;;;;;;
2023/06/27 08:32:06;;;;;;;9.25;4.60;;;;;;;;;;2531599;23;20029;-90
2023/06/27 08:34:09;;;;;;;17.63;5.80;;;;;;;;;;2524473;23;20055;-90
2023/06/27 08:35:55;;;;;;;11.70;4.90;;;;;;;;;;2520392;23;20018;-91
2023/06/27 08:40:09;;;;;;;14.27;6.28;;;;;;;;;;2475205;23;20008;-91
2023/06/27 08:43:24;;;;;;;11.52;5.53;;;;;;;;;;2477523;24;20373;-91
2023/06/27 08:44:53;;;;;;;37.13;13.55;;;;;;;;;;2455837;23;20330;-91
2023/06/27 08:46:19;;;;;;;12.27;6.40;;;;;;;;;;2474011;24;20016;-91
2023/06/27 08:52:42;;;;;;;;;;;;;;;;;;;;;
2023/06/27 09:06:54;;;;;;;14.43;6.47;;;;;;;;;;2501958;23;20030;-91
2023/06/27 09:08:18;;;;;;;;;;;;;;;;;;2534135;23;20013;-90
2023/06/27 09:11:58;;;;;;;14.88;6.32;;;;;;;;;;2549875;23;20010;-90
2023/06/27 09:13:20;;;;;;;11.77;5.65;;;;;;;;;;2532353;23;20020;-91
2023/06/27 09:15:14;;;;;;;15.82;6.40;;;;;;;;;;2532299;23;20010;-92
2023/06/27 09:16:50;;;;;;;14.63;6.07;;;;;;;;;;2527090;23;20025;-92
2023/06/27 09:18:29;;;;;;;16.63;7.32;;;;;;;;;;2534755;23;20650;-92
2023/06/27 09:19:51;;;;;;;13.15;6.07;;;;;;;;;;2536938;23;20026;-91
2023/06/27 09:21:21;;;;;;;9.35;5.47;;;;;;;;;;2528118;23;20010;-92
2023/06/27 09:23:05;;;;;;;;;;;;;;;;;;;;;
2023/06/27 09:24:30;;;;;;;12.80;5.88;;;;;;;;;;2547979;23;20061;-91
2023/06/27 09:28:32;;;;;;;17.77;6.57;;;;;;;;;;2545663;23;20005;-92
2023/06/27 09:30:02;;;;;;;13.90;6.53;;;;;;;;;;2534041;23;19990;-91
2023/06/27 09:33:45;;;;;;;13.60;6.05;;;;;;;;;;2545173;23;20033;-91
2023/06/27 09:37:26;;;;;;;13.80;6.10;;;;;;;;;;2517703;23;20014;-90
2023/06/27 09:38:53;;;;;;;13.88;6.45;;;;;;;;;;2498037;23;20016;-91
2023/06/27 09:40:51;;;;;;;12.40;6.05;;;;;;;;;;2487666;23;20035;-91
2023/06/27 09:49:20;;;;;;;10.23;5.05;;;;;;;;;;2461927;24;20017;-90
2023/06/27 09:51:11;;;;;;;;;;;;;;;;;;;;;
2023/06/27 09:53:04;;;;;;;15.38;6.13;;;;;;;;;;2438196;24;20134;-91
2023/06/27 09:56:30;;;;;;;34.53;12.18;;;;;;;;;;2431287;24;20086;-93
2023/06/27 09:59:08;;;;;;;7.82;3.28;;;;;;;;;;2562885;23;20032;-77
2023/06/27 10:00:40;;;;;;;13.85;4.65;;;;;;;;;;2557365;23;20012;-78
2023/06/27 10:02:02;;;;;;;8.23;3.33;;;;;;;;;;2542983;23;20017;-75
2023/06/27 10:09:27;;;;;;;12.25;3.42;;;;;;;;;;2555396;23;20390;-77
2023/06/27 11:09:31;;;;;;;3.90;2.72;;;;;;;;;;2533297;23;20021;-75
2023/06/27 11:14:54;;;;;;;9.30;3.80;;;;;;;;;;2530798;23;20336;-77
2023/06/27 11:16:24;;;;;;;11.88;4.72;;;;;;;;;;2518897;23;20468;-75
2023/06/27 11:18:04;;;;;;;11.55;3.97;;;;;;;;;;2522725;23;20010;-78
2023/06/27 11:24:06;;;;;;;5.20;2.97;;;;;;;;;;2427812;24;20006;-74
2023/06/27 11:25:36;;;;;;;12.23;4.82;;;;;;;;;;2427994;24;20424;-75
2023/06/27 11:26:58;;;;;;;33.83;10.80;;;;;;;;;;2448005;24;20013;-79
2023/06/27 11:30:45;;;;;;;7.80;3.70;;;;;;;;;;2461835;24;20395;-80
2023/06/27 11:34:48;;;;;;;10.95;4.28;;;;;;;;;;2461022;24;20000;-85
2023/06/27 11:37:14;;;;;;;13.82;4.63;;;;;;;;;;2450607;24;20089;-77
2023/06/27 12:00:42;;;;;;;7.90;3.35;;;;;;;;;;2474080;24;20056;-80
2023/06/27 12:04:15;;;;;;;7.22;3.40;;;;;;;;;;2484374;23;20012;-77
2023/06/27 12:56:31;;;;;;;40.40;13.15;;;;;;;;;;2515828;23;20033;-78
2023/06/27 12:58:09;;;;;;;8.93;3.90;;;;;;;;;;2508011;23;20023;-77
2023/06/27 12:59:30;;;;;;;9.52;3.55;;;;;;;;;;2510998;23;20077;-74
2023/06/27 13:00:51;;;;;;;5.35;3.28;;;;;;;;;;2505445;23;20021;-78
2023/06/27 13:04:19;;;;;;;6.47;3.30;;;;;;;;;;2520768;23;20490;-77
2023/06/27 13:06:01;;;;;;;13.57;3.50;;;;;;;;;;2509574;23;20018;-77
2023/06/27 13:07:22;;;;;;;9.25;3.28;;;;;;;;;;2497933;23;20012;-76
2023/06/27 13:08:43;;;;;;;7.25;2.90;;;;;;;;;;2495634;23;20015;-76
2023/06/27 13:18:52;;;;;;;12.15;4.07;;;;;;;;;;2528204;23;20036;-77
2023/06/27 13:25:01;;;;;;;7.47;3.72;;;;;;;;;;2463926;24;20073;-78
2023/06/27 13:28:40;;;;;;;10.43;4.57;;;;;;;;;;2449825;24;20005;-77
2023/06/27 13:34:30;;;;;;;8.82;3.30;;;;;;;;;;2394665;24;20011;-76
2023/06/27 13:39:47;;;;;;;14.93;5.00;;;;;;;;;;2386524;24;20402;-75
2023/06/27 13:41:11;;;;;;;12.95;4.47;;;;;;;;;;2394707;24;20112;-74
2023/06/27 13:42:32;;;;;;;8.35;3.47;;;;;;;;;;2382665;24;20015;-76
2023/06/27 13:43:53;;;;;;;5.93;3.20;;;;;;;;;;2397165;24;20011;-76
2023/06/27 13:45:39;;;;;;;10.38;4.00;;;;;;;;;;2414192;24;20354;-75
2023/06/27 13:47:03;;;;;;;10.52;3.97;;;;;;;;;;2460384;24;20016;-75
2023/06/27 13:48:53;;;;;;;8.13;3.90;;;;;;;;;;2459916;24;20363;-75
2023/06/27 13:50:14;;;;;;;7.18;3.65;;;;;;;;;;2461473;24;20009;-76
2023/06/27 13:53:39;;;;;;;6.78;3.33;;;;;;;;;;2464375;23;20016;-75
2023/06/27 14:16:00;;;;;;;7.47;4.93;;;;;;;;;;2524546;23;20339;-95
2023/06/27 14:17:48;;;;;;;10.90;5.68;;;;;;;;;;2512184;23;20365;-96
2023/06/27 14:19:12;;;;;;;11.90;6.35;;;;;;;;;;2522179;23;20010;-96
2023/06/27 14:20:33;;;;;;;7.95;4.20;;;;;;;;;;2510642;23;20018;-96
2023/06/27 14:21:55;;;;;;;11.17;4.67;;;;;;;;;;2504552;23;20325;-96
2023/06/27 14:23:17;;;;;;;11.30;5.07;;;;;;;;;;2505790;23;20409;-96
2023/06/27 14:24:45;;;;;;;8.85;4.80;;;;;;;;;;2505970;23;20365;-96
2023/06/27 14:26:09;;;;;;;8.75;4.93;;;;;;;;;;2509432;23;20378;-96
2023/06/27 14:27:30;;;;;;;10.57;5.60;;;;;;;;;;2507487;23;20070;-95
2023/06/27 14:28:52;;;;;;;8.85;4.95;;;;;;;;;;2507987;23;20018;-96
2023/06/27 14:30:13;;;;;;;11.73;5.97;;;;;;;;;;2507757;23;20029;-96
2023/06/27 14:31:40;;;;;;;8.85;5.05;;;;;;;;;;2507713;23;20015;-96
2023/06/27 14:33:09;;;;;;;10.57;5.53;;;;;;;;;;2511475;23;20043;-96
2023/06/27 14:34:33;;;;;;;10.55;5.25;;;;;;;;;;2511621;23;20022;-95
2023/06/27 14:36:00;;;;;;;8.05;5.03;;;;;;;;;;2512310;23;20082;-96
2023/06/27 14:37:41;;;;;;;8.30;5.40;;;;;;;;;;2522039;23;20014;-96
2023/06/27 14:39:04;;;;;;;13.85;5.85;;;;;;;;;;2515107;23;20011;-96
2023/06/27 14:40:29;;;;;;;10.38;6.07;;;;;;;;;;2509740;23;20018;-94
2023/06/27 14:41:54;;;;;;;7.57;4.90;;;;;;;;;;2511405;23;20023;-96
2023/06/27 14:43:15;;;;;;;8.40;4.43;;;;;;;;;;2507847;23;20067;-86
2023/06/27 14:44:36;;;;;;;14.10;6.57;;;;;;;;;;2505489;23;20014;-86
2023/06/27 14:45:59;;;;;;;11.75;5.63;;;;;;;;;;2505169;23;20013;-88
2023/06/27 22:51:03;;;;;;;9.90;5.75;;;;;;;;;;2532933;23;20455;-87
2023/06/27 22:52:28;;;;;;;13.50;6.10;;;;;;;;;;2529463;23;20018;-87
2023/06/27 22:54:09;;;;;;;12.70;6.38;;;;;;;;;;2518195;23;20010;-87
2023/06/27 22:55:30;;;;;;;14.75;6.28;;;;;;;;;;2521104;23;20010;-87
2023/06/27 22:56:51;;;;;;;13.15;6.55;;;;;;;;;;2516347;23;20018;-87
2023/06/27 22:58:38;;;;;;;11.38;5.90;;;;;;;;;;2514865;23;20022;-86
2023/06/27 22:59:59;;;;;;;10.80;6.40;;;;;;;;;;2520703;23;20086;-86
2023/06/27 23:01:20;;;;;;;12.23;6.07;;;;;;;;;;2515761;23;20010;-86
2023/06/27 23:02:50;;;;;;;14.32;6.85;;;;;;;;;;2512611;23;20102;-86
2023/06/27 23:04:32;;;;;;;12.25;5.82;;;;;;;;;;2516569;23;20010;-87
2023/06/27 23:05:53;;;;;;;13.23;6.65;;;;;;;;;;2520557;23;20117;-86
2023/06/27 23:07:14;;;;;;;11.38;6.43;;;;;;;;;;2515583;23;20081;-86
2023/06/27 23:08:35;;;;;;;9.70;6.10;;;;;;;;;;2514601;23;20294;-87
2023/06/27 23:09:56;;;;;;;9.98;5.72;;;;;;;;;;2516367;23;20011;-86
2023/06/27 23:11:17;;;;;;;9.93;6.45;;;;;;;;;;2515180;23;20013;-86
2023/06/27 23:12:54;;;;;;;14.70;6.38;;;;;;;;;;2513804;23;20018;-85
2023/06/27 23:14:15;;;;;;;11.80;5.95;;;;;;;;;;2519616;23;20014;-86
2023/06/27 23:15:36;;;;;;;14.40;6.53;;;;;;;;;;2514945;23;20018;-87
2023/06/27 23:16:58;;;;;;;12.57;6.30;;;;;;;;;;2529904;23;20014;-86
2023/06/27 23:18:21;;;;;;;10.20;6.32;;;;;;;;;;2519660;23;20022;-86
2023/06/27 23:19:51;;;;;;;11.35;6.22;;;;;;;;;;2515297;23;20021;-86
2023/06/27 23:21:23;;;;;;;11.15;6.05;;;;;;;;;;2517284;23;20017;-87
2023/06/27 23:23:13;;;;;;;21.90;9.88;;;;;;;;;;2472358;23;20024;-87
2023/06/27 23:24:41;;;;;;;13.27;6.93;;;;;;;;;;2483290;23;20016;-87
2023/06/27 23:26:08;;;;;;;9.45;6.38;;;;;;;;;;2471922;24;20008;-86
2023/06/27 23:27:29;;;;;;;10.80;6.90;;;;;;;;;;2481961;23;20346;-87
2023/06/27 23:29:04;;;;;;;13.93;6.60;;;;;;;;;;2479702;23;20502;-85
2023/06/27 23:31:20;;;;;;;13.27;7.18;;;;;;;;;;2484963;23;20092;-87
2023/06/27 23:32:57;;;;;;;45.03;16.02;;;;;;;;;;2481698;23;20019;-87
2023/06/27 23:34:52;;;;;;;11.38;6.95;;;;;;;;;;2459464;23;20019;-86
2023/06/27 23:36:13;;;;;;;15.25;8.13;;;;;;;;;;2452070;23;20344;-86
2023/06/27 23:37:35;;;;;;;11.93;7.10;;;;;;;;;;2492422;23;20011;-86
2023/06/27 23:38:56;;;;;;;16.17;8.70;;;;;;;;;;2485257;23;20009;-87
2023/06/27 23:40:19;;;;;;;13.13;7.57;;;;;;;;;;2481688;23;20493;-86
2023/06/27 23:42:19;;;;;;;16.60;8.00;;;;;;;;;;2480308;23;20012;-87
2023/06/27 23:43:50;;;;;;;27.23;10.57;;;;;;;;;;2489340;23;20454;-88
2023/06/27 23:45:26;;;;;;;13.25;7.45;;;;;;;;;;2474120;23;20051;-88
2023/06/27 23:47:12;;;;;;;16.25;7.65;;;;;;;;;;2497346;23;20318;-96
2023/06/27 23:49:03;;;;;;;;;;;;;;;;;;;;;
2023/06/27 23:50:30;;;;;;;13.32;7.63;;;;;;;;;;2532506;23;20309;-94
2023/06/27 23:51:57;;;;;;;15.40;7.70;;;;;;;;;;2517694;23;20420;-95
2023/06/27 23:53:55;;;;;;;15.55;7.85;;;;;;;;;;2495583;23;20026;-94
2023/06/27 23:55:19;;;;;;;13.63;7.15;;;;;;;;;;2531824;23;20025;-86
2023/06/27 23:56:51;;;;;;;21.83;8.82;;;;;;;;;;2519380;23;20073;-86
2023/06/27 23:58:21;;;;;;;;;;;;;;;;;;2517957;23;20326;-86
2023/06/27 23:59:42;;;;;;;13.18;6.97;;;;;;;;;;2518465;23;20410;-87
